createdAt,value
2019-01-21T00:01:41.977Z,34.50
2019-01-21T00:04:16.620Z,35.80
2019-01-21T00:06:49.476Z,36.07
2019-01-21T00:09:23.112Z,33.27
2019-01-21T00:11:56.012Z,33.80
2019-01-21T00:14:29.017Z,35.23
2019-01-21T00:17:03.771Z,32.10
2019-01-21T00:19:36.585Z,36.07
2019-01-21T00:22:09.485Z,33.20
2019-01-21T00:24:42.992Z,39.37
2019-01-21T00:27:16.766Z,37.50
2019-01-21T00:29:49.788Z,40.70
2019-01-21T00:32:24.673Z,31.87
2019-01-21T00:34:59.461Z,37.47
2019-01-21T00:37:32.220Z,36.23
2019-01-21T00:40:06.978Z,39.20
2019-01-21T00:42:39.883Z,37.37
2019-01-21T00:45:15.396Z,33.83
2019-01-21T00:47:48.497Z,31.50
2019-01-21T00:50:22.202Z,31.17
2019-01-21T00:52:56.542Z,28.55
2019-01-21T00:55:33.251Z,32.07
2019-01-21T00:58:06.205Z,34.07
2019-01-21T01:00:39.628Z,32.10
2019-01-21T01:03:13.816Z,29.47
2019-01-21T01:05:49.819Z,27.13
2019-01-21T01:08:23.049Z,30.80
2019-01-21T01:10:56.040Z,28.77
2019-01-21T01:13:28.988Z,33.70
2019-01-21T01:16:02.990Z,29.87
2019-01-21T01:18:36.423Z,28.60
2019-01-21T01:21:10.836Z,32.03
2019-01-21T01:23:44.018Z,26.50
2019-01-21T01:26:18.070Z,33.67
2019-01-21T01:28:51.006Z,30.90
2019-01-21T01:31:25.391Z,33.70
2019-01-21T01:33:58.216Z,36.80
2019-01-21T01:36:31.220Z,34.37
2019-01-21T01:39:06.702Z,32.63
2019-01-21T01:41:39.676Z,31.10
2019-01-21T01:44:12.642Z,29.27
2019-01-21T01:46:46.853Z,32.90
2019-01-21T01:49:19.922Z,31.70
2019-01-21T01:51:52.931Z,27.55
2019-01-21T01:54:26.360Z,29.47
2019-01-21T01:56:59.543Z,24.77
2019-01-21T01:59:32.540Z,24.27
2019-01-21T02:02:07.036Z,28.97
2019-01-21T02:04:40.004Z,30.50
2019-01-21T02:07:14.093Z,25.45
2019-01-21T02:09:49.607Z,25.73
2019-01-21T02:12:22.541Z,26.00
2019-01-21T02:14:55.395Z,25.63
2019-01-21T02:17:28.927Z,24.53
2019-01-21T02:20:03.528Z,24.80
2019-01-21T02:22:44.128Z,28.17
2019-01-21T02:25:17.725Z,26.30
2019-01-21T02:28:42.986Z,25.67
2019-01-21T02:32:23.965Z,24.07
2019-01-21T02:35:36.849Z,27.00
2019-01-21T02:39:09.705Z,32.60
2019-01-21T02:42:01.248Z,34.57
2019-01-21T02:45:08.774Z,31.60
2019-01-21T02:48:38.887Z,26.70
2019-01-21T02:51:54.923Z,31.25
2019-01-21T02:54:59.179Z,28.75
2019-01-21T02:58:24.898Z,26.15
2019-01-21T03:02:04.918Z,25.07
2019-01-21T03:05:38.340Z,26.00
2019-01-21T03:09:11.950Z,25.63
2019-01-21T03:12:11.805Z,22.20
2019-01-21T03:15:51.720Z,27.57
2019-01-21T03:19:42.427Z,26.60
2019-01-21T03:22:56.054Z,27.57
2019-01-21T03:26:28.327Z,24.70
2019-01-21T03:29:40.728Z,23.38
2019-01-21T03:32:50.154Z,25.33
2019-01-21T03:36:06.066Z,25.70
2019-01-21T03:39:26.248Z,26.77
2019-01-21T03:42:30.610Z,28.17
2019-01-21T03:46:01.572Z,25.62
2019-01-21T03:48:47.661Z,37.27
2019-01-21T03:52:19.788Z,34.17
2019-01-21T03:55:05.591Z,27.42
2019-01-21T03:58:27.716Z,30.77
2019-01-21T04:01:57.526Z,26.60
2019-01-21T04:05:21.769Z,22.40
2019-01-21T04:08:36.715Z,23.98
2019-01-21T04:12:03.161Z,27.67
2019-01-21T04:15:30.625Z,21.35
2019-01-21T04:18:54.735Z,20.83
2019-01-21T04:22:08.358Z,24.77
2019-01-21T04:25:24.500Z,23.93
2019-01-21T04:28:24.398Z,20.10
2019-01-21T04:32:00.132Z,22.33
2019-01-21T04:35:33.476Z,24.07
2019-01-21T04:38:56.586Z,27.07
2019-01-21T04:41:55.457Z,24.47
2019-01-21T04:45:21.262Z,22.73
2019-01-21T04:48:35.813Z,21.42
2019-01-21T04:52:22.664Z,21.07
2019-01-21T04:56:02.584Z,25.92
2019-01-21T04:59:35.645Z,20.83
2019-01-21T05:02:52.653Z,21.90
2019-01-21T05:06:17.015Z,23.40
2019-01-21T05:09:43.553Z,22.50
2019-01-21T05:13:06.608Z,26.93
2019-01-21T05:16:23.460Z,23.83
2019-01-21T05:19:57.644Z,23.83
2019-01-21T05:23:17.669Z,23.23
2019-01-21T05:26:28.282Z,26.30
2019-01-21T05:30:14.890Z,27.43
2019-01-21T05:33:31.237Z,24.60
2019-01-21T05:37:07.381Z,26.65
2019-01-21T05:40:36.630Z,24.90
2019-01-21T05:44:00.427Z,31.03
2019-01-21T05:47:46.670Z,30.47
2019-01-21T05:50:52.567Z,25.57
2019-01-21T05:54:11.588Z,30.30
2019-01-21T05:57:29.440Z,25.33
2019-01-21T06:01:05.973Z,24.93
2019-01-21T06:04:54.469Z,25.20
2019-01-21T06:08:39.175Z,24.77
2019-01-21T06:12:05.394Z,23.95
2019-01-21T06:15:28.380Z,24.00
2019-01-21T06:18:42.545Z,24.67
2019-01-21T06:22:01.577Z,19.07
2019-01-21T06:25:20.187Z,24.37
2019-01-21T06:29:07.470Z,22.05
2019-01-21T06:32:16.500Z,23.00
2019-01-21T06:35:28.431Z,23.45
2019-01-21T06:38:54.769Z,21.87
2019-01-21T06:42:08.178Z,20.80
2019-01-21T06:45:51.227Z,25.70
2019-01-21T06:49:11.561Z,25.33
2019-01-21T06:52:10.201Z,21.43
2019-01-21T06:55:35.474Z,27.70
2019-01-21T06:58:58.763Z,24.10
2019-01-21T07:02:32.948Z,28.00
2019-01-21T07:05:36.725Z,33.00
2019-01-21T07:08:58.122Z,30.83
2019-01-21T07:12:13.368Z,24.67
2019-01-21T07:15:46.899Z,25.50
2019-01-21T07:19:20.509Z,25.83
2019-01-21T07:22:37.673Z,26.75
2019-01-21T07:26:03.239Z,23.03
2019-01-21T07:29:25.888Z,28.10
2019-01-21T07:33:17.702Z,23.27
2019-01-21T07:36:43.768Z,22.23
2019-01-21T07:40:14.222Z,26.57
2019-01-21T07:43:58.633Z,25.67
2019-01-21T07:47:40.477Z,27.70
2019-01-21T07:50:59.868Z,24.23
2019-01-21T07:54:31.413Z,22.90
2019-01-21T07:58:02.320Z,21.75
2019-01-21T08:01:19.348Z,22.87
2019-01-21T08:04:55.440Z,21.07
2019-01-21T08:08:17.168Z,23.65
2019-01-21T08:11:58.234Z,24.57
2019-01-21T08:15:00.715Z,33.70
2019-01-21T08:18:20.045Z,26.48
2019-01-21T08:21:39.703Z,27.53
2019-01-21T08:24:55.556Z,26.70
2019-01-21T08:28:01.607Z,29.60
2019-01-21T08:31:12.731Z,28.40
2019-01-21T08:34:45.055Z,28.65
2019-01-21T08:37:53.105Z,30.10
2019-01-21T08:41:42.027Z,28.97
2019-01-21T08:45:13.921Z,33.00
2019-01-21T08:48:40.109Z,34.90
2019-01-21T08:52:05.093Z,31.85
2019-01-21T08:55:42.254Z,47.65
2019-01-21T08:59:09.416Z,34.67
2019-01-21T09:02:24.415Z,36.25
2019-01-21T09:05:52.277Z,45.10
2019-01-21T09:09:26.512Z,42.42
2019-01-21T09:12:24.397Z,43.60
2019-01-21T09:15:30.718Z,38.53
2019-01-21T09:18:35.847Z,36.23
2019-01-21T09:22:04.698Z,38.37
2019-01-21T09:25:19.117Z,35.15
2019-01-21T09:28:58.902Z,35.60
2019-01-21T09:32:24.583Z,32.70
2019-01-21T09:35:46.038Z,34.58
2019-01-21T09:39:20.711Z,34.00
2019-01-21T09:42:21.370Z,35.70
2019-01-21T09:45:58.829Z,33.87
2019-01-21T09:48:30.533Z,35.10
2019-01-21T09:51:08.021Z,32.53
2019-01-21T09:53:48.098Z,32.43
2019-01-21T09:56:23.389Z,30.23
2019-01-21T09:59:03.948Z,28.50
2019-01-21T10:01:37.694Z,32.73
2019-01-21T10:04:25.473Z,32.13
2019-01-21T10:07:32.288Z,32.63
2019-01-21T10:10:44.306Z,30.73
2019-01-21T10:13:55.624Z,28.65
2019-01-21T10:17:10.289Z,28.37
2019-01-21T10:20:28.844Z,27.93
2019-01-21T10:24:05.323Z,27.80
2019-01-21T10:27:34.879Z,25.55
2019-01-21T10:30:50.473Z,27.57
2019-01-21T10:34:15.994Z,27.23
2019-01-21T10:38:19.170Z,24.12
2019-01-21T10:41:29.611Z,26.20
2019-01-21T10:45:14.063Z,25.15
2019-01-21T10:48:29.747Z,24.27
2019-01-21T10:51:35.158Z,26.07
2019-01-21T10:54:58.963Z,26.57
2019-01-21T10:58:14.865Z,28.07
2019-01-21T11:01:25.755Z,26.50
2019-01-21T11:04:37.184Z,28.63
2019-01-21T11:08:02.194Z,26.30
2019-01-21T11:11:15.511Z,25.90
2019-01-21T11:14:25.132Z,26.58
2019-01-21T11:17:56.315Z,26.43
2019-01-21T11:21:10.486Z,28.90
2019-01-21T11:25:16.597Z,26.67
2019-01-21T11:28:22.368Z,25.73
2019-01-21T11:31:44.741Z,24.67
2019-01-21T11:35:01.243Z,25.83
2019-01-21T11:38:22.994Z,24.30
2019-01-21T11:41:57.668Z,28.93
2019-01-21T11:45:18.625Z,29.07
2019-01-21T11:48:36.181Z,28.20
2019-01-21T11:51:45.074Z,27.03
2019-01-21T11:55:01.849Z,24.90
2019-01-21T11:58:22.387Z,24.30
2019-01-21T12:02:07.815Z,26.67
2019-01-21T12:05:28.478Z,26.07
2019-01-21T12:09:00.842Z,25.10
2019-01-21T12:12:24.332Z,24.45
2019-01-21T12:15:45.728Z,25.37
2019-01-21T12:19:02.064Z,24.50
2019-01-21T12:22:36.167Z,28.57
2019-01-21T12:25:29.505Z,25.57
2019-01-21T12:28:42.558Z,29.20
2019-01-21T12:32:01.492Z,28.13
2019-01-21T12:35:39.991Z,26.97
2019-01-21T12:39:05.693Z,24.97
2019-01-21T12:42:02.534Z,24.77
2019-01-21T12:46:02.575Z,28.03
2019-01-21T12:49:18.047Z,28.53
2019-01-21T12:52:17.216Z,29.40
2019-01-21T12:55:24.855Z,25.00
2019-01-21T12:58:39.735Z,24.47
2019-01-21T13:01:48.074Z,26.50
2019-01-21T13:05:17.286Z,25.90
2019-01-21T13:08:22.847Z,24.90
2019-01-21T13:11:33.505Z,26.57
2019-01-21T13:15:00.204Z,26.47
2019-01-21T13:18:28.395Z,24.63
2019-01-21T13:22:03.629Z,23.90
2019-01-21T13:25:10.104Z,27.50
2019-01-21T13:28:24.653Z,26.57
2019-01-21T13:31:46.903Z,23.85
2019-01-21T13:35:00.954Z,25.70
2019-01-21T13:38:28.467Z,29.43
2019-01-21T13:42:00.493Z,25.30
2019-01-21T13:45:27.855Z,21.17
2019-01-21T13:49:02.382Z,25.00
2019-01-21T13:52:22.934Z,26.07
2019-01-21T13:55:35.304Z,29.40
2019-01-21T13:59:00.201Z,26.27
2019-01-21T14:02:03.695Z,29.30
2019-01-21T14:05:31.353Z,29.17
2019-01-21T14:08:28.169Z,29.60
2019-01-21T14:11:28.086Z,29.07
2019-01-21T14:14:37.164Z,28.47
2019-01-21T14:17:54.991Z,29.10
2019-01-21T14:21:04.684Z,27.77
2019-01-21T14:25:00.279Z,25.02
2019-01-21T14:28:25.477Z,26.52
2019-01-21T14:31:57.967Z,27.03
2019-01-21T14:35:28.308Z,30.33
2019-01-21T14:39:00.405Z,27.62
2019-01-21T14:42:45.734Z,26.90
2019-01-21T14:45:43.881Z,27.02
2019-01-21T14:49:04.561Z,28.13
2019-01-21T14:52:37.029Z,29.60
2019-01-21T14:55:51.347Z,27.80
2019-01-21T14:58:51.723Z,27.77
2019-01-21T15:02:21.188Z,27.77
2019-01-21T15:05:54.938Z,28.08
2019-01-21T15:08:49.627Z,32.10
2019-01-21T15:12:11.773Z,27.77
2019-01-21T15:15:32.929Z,29.13
2019-01-21T15:18:47.259Z,32.58
2019-01-21T15:21:54.914Z,29.58
2019-01-21T15:25:15.293Z,33.20
2019-01-21T15:29:02.677Z,29.33
2019-01-21T15:32:54.696Z,30.50
2019-01-21T15:36:32.766Z,30.90
2019-01-21T15:39:46.788Z,35.03
2019-01-21T15:43:07.190Z,39.57
2019-01-21T15:46:08.988Z,32.67
2019-01-21T15:49:38.039Z,37.70
2019-01-21T15:52:35.414Z,30.70
2019-01-21T15:55:40.569Z,31.87
2019-01-21T15:58:38.212Z,37.03
2019-01-21T16:01:53.282Z,32.43
2019-01-21T16:05:00.397Z,35.30
2019-01-21T16:08:03.326Z,40.47
2019-01-21T16:11:31.304Z,36.00
2019-01-21T16:14:23.886Z,45.30
2019-01-21T16:17:40.952Z,41.43
2019-01-21T16:20:47.179Z,35.63
2019-01-21T16:23:51.398Z,39.97
2019-01-21T16:26:43.500Z,37.30
2019-01-21T16:29:45.275Z,41.60
2019-01-21T16:32:42.892Z,41.40
2019-01-21T16:36:12.663Z,41.07
2019-01-21T16:39:47.496Z,39.92
2019-01-21T16:42:31.917Z,39.22
2019-01-21T16:45:08.651Z,41.40
2019-01-21T16:47:49.541Z,41.90
2019-01-21T16:50:25.837Z,43.83
2019-01-21T16:53:16.455Z,40.97
2019-01-21T16:55:51.197Z,40.20
2019-01-21T16:58:24.968Z,43.35
2019-01-21T17:01:00.914Z,39.87
2019-01-21T17:03:34.245Z,44.80
2019-01-21T17:06:07.424Z,42.33
2019-01-21T17:08:42.301Z,43.17
2019-01-21T17:11:18.068Z,44.13
2019-01-21T17:13:52.964Z,43.07
2019-01-21T17:16:29.112Z,42.30
2019-01-21T17:19:03.220Z,46.60
2019-01-21T17:21:37.613Z,66.37
2019-01-21T17:24:13.232Z,48.20
2019-01-21T17:26:51.009Z,44.27
2019-01-21T17:29:24.354Z,44.93
2019-01-21T17:31:58.199Z,55.40
2019-01-21T17:34:32.782Z,50.33
2019-01-21T17:37:07.910Z,51.67
2019-01-21T17:39:41.776Z,50.70
2019-01-21T17:42:15.701Z,51.20
2019-01-21T17:44:52.790Z,48.80
2019-01-21T17:47:31.379Z,45.80
2019-01-21T17:50:05.359Z,43.13
2019-01-21T17:52:42.672Z,49.67
2019-01-21T17:55:20.374Z,44.67
2019-01-21T17:57:53.339Z,42.23
2019-01-21T18:00:31.603Z,44.03
2019-01-21T18:03:06.396Z,44.90
2019-01-21T18:05:43.809Z,40.77
2019-01-21T18:08:17.571Z,41.97
2019-01-21T18:10:51.965Z,40.20
2019-01-21T18:13:27.486Z,38.60
2019-01-21T18:16:04.643Z,37.50
2019-01-21T18:18:38.653Z,42.80
2019-01-21T18:21:12.635Z,38.47
2019-01-21T18:23:51.841Z,36.83
2019-01-21T18:26:25.096Z,34.23
2019-01-21T18:29:00.691Z,37.33
2019-01-21T18:31:36.417Z,34.47
2019-01-21T18:34:12.581Z,35.63
2019-01-21T18:36:50.777Z,35.23
2019-01-21T18:39:27.887Z,38.03
2019-01-21T18:42:02.540Z,36.23
2019-01-21T18:44:36.523Z,37.20
2019-01-21T18:47:13.539Z,37.53
2019-01-21T18:49:47.957Z,38.30
2019-01-21T18:52:21.240Z,40.23
2019-01-21T18:54:56.757Z,37.57
2019-01-21T18:57:34.043Z,41.53
2019-01-21T19:00:17.594Z,43.43
2019-01-21T19:02:51.466Z,41.23
2019-01-21T19:05:25.955Z,41.00
2019-01-21T19:08:05.489Z,37.77
2019-01-21T19:10:47.436Z,40.10
2019-01-21T19:13:26.249Z,45.10
2019-01-21T19:15:59.823Z,44.57
2019-01-21T19:18:35.915Z,42.53
2019-01-21T19:21:09.026Z,42.63
2019-01-21T19:23:46.357Z,44.10
2019-01-21T19:26:21.291Z,46.13
2019-01-21T19:28:55.696Z,44.15
2019-01-21T19:31:29.480Z,45.67
2019-01-21T19:34:06.728Z,44.17
2019-01-21T19:36:43.117Z,46.33
2019-01-21T19:39:23.612Z,64.17
2019-01-21T19:41:59.338Z,51.53
2019-01-21T19:44:34.365Z,46.33
2019-01-21T19:47:07.970Z,46.03
2019-01-21T19:49:42.322Z,47.77
2019-01-21T19:52:15.804Z,48.60
2019-01-21T19:54:51.130Z,51.70
2019-01-21T19:57:27.196Z,49.00
2019-01-21T20:00:04.547Z,48.07
2019-01-21T20:02:38.635Z,44.73
2019-01-21T20:05:12.675Z,45.83
2019-01-21T20:07:47.347Z,40.77
2019-01-21T20:10:21.689Z,43.67
2019-01-21T20:13:05.747Z,46.28
2019-01-21T20:15:40.734Z,45.80
2019-01-21T20:18:13.799Z,46.83
2019-01-21T20:20:58.437Z,47.43
2019-01-21T20:23:37.598Z,47.67
2019-01-21T20:26:10.735Z,54.92
2019-01-21T20:28:45.836Z,48.72
2019-01-21T20:31:20.016Z,48.50
2019-01-21T20:33:53.829Z,50.43
2019-01-21T20:36:28.322Z,50.57
2019-01-21T20:39:05.163Z,46.80
2019-01-21T20:41:38.298Z,48.90
2019-01-21T20:44:16.053Z,49.57
2019-01-21T20:46:49.041Z,56.70
2019-01-21T20:49:26.680Z,61.87
2019-01-21T20:52:01.744Z,53.93
2019-01-21T20:54:35.468Z,51.03
2019-01-21T20:57:10.398Z,51.37
2019-01-21T20:59:44.228Z,48.57
2019-01-21T21:02:18.560Z,49.70
2019-01-21T21:04:51.685Z,51.63
2019-01-21T21:07:27.988Z,50.27
2019-01-21T21:10:05.728Z,43.97
2019-01-21T21:12:46.218Z,46.50
2019-01-21T21:15:27.140Z,47.37
2019-01-21T21:18:00.993Z,49.67
2019-01-21T21:20:36.598Z,42.60
2019-01-21T21:23:10.847Z,45.90
2019-01-21T21:25:46.997Z,47.03
2019-01-21T21:28:33.095Z,43.23
2019-01-21T21:31:07.421Z,43.03
2019-01-21T21:33:41.400Z,37.60
2019-01-21T21:36:14.785Z,40.97
2019-01-21T21:38:49.009Z,43.07
2019-01-21T21:41:22.393Z,40.77
2019-01-21T21:43:56.065Z,40.43
2019-01-21T21:46:29.892Z,41.93
2019-01-21T21:49:04.240Z,39.20
2019-01-21T21:51:37.541Z,41.70
2019-01-21T21:54:10.516Z,40.73
2019-01-21T21:56:46.450Z,41.43
2019-01-21T21:59:20.344Z,38.58
2019-01-21T22:01:56.582Z,41.93
2019-01-21T22:04:35.127Z,39.00
2019-01-21T22:07:14.257Z,43.50
2019-01-21T22:09:49.182Z,39.60
2019-01-21T22:12:22.215Z,40.20
2019-01-21T22:14:57.806Z,39.97
2019-01-21T22:17:30.771Z,37.87
2019-01-21T22:20:06.036Z,42.27
2019-01-21T22:22:41.882Z,38.67
2019-01-21T22:25:17.566Z,41.23
2019-01-21T22:27:51.100Z,39.57
2019-01-21T22:30:30.060Z,42.63
2019-01-21T22:33:05.405Z,42.00
2019-01-21T22:35:40.065Z,39.23
2019-01-21T22:38:14.153Z,40.47
2019-01-21T22:40:49.234Z,41.97
2019-01-21T22:43:23.403Z,39.57
2019-01-21T22:45:57.682Z,38.83
2019-01-21T22:48:31.201Z,37.00
2019-01-21T22:51:04.604Z,38.30
2019-01-21T22:53:39.055Z,39.75
2019-01-21T22:56:12.363Z,37.20
2019-01-21T22:58:45.200Z,40.10
2019-01-21T23:01:31.950Z,40.00
2019-01-21T23:04:05.119Z,38.57
2019-01-21T23:06:39.076Z,40.67
2019-01-21T23:09:13.068Z,36.27
2019-01-21T23:11:54.050Z,38.40
2019-01-21T23:14:29.166Z,39.67
2019-01-21T23:17:03.572Z,37.55
2019-01-21T23:19:36.579Z,41.93
2019-01-21T23:22:10.542Z,39.17
2019-01-21T23:24:43.992Z,39.37
2019-01-21T23:27:16.904Z,37.50
2019-01-21T23:29:51.934Z,35.47
2019-01-21T23:32:25.689Z,35.87
2019-01-21T23:34:58.580Z,35.37
2019-01-21T23:37:33.037Z,36.77
2019-01-21T23:40:09.292Z,37.20
2019-01-21T23:42:42.229Z,37.70
2019-01-21T23:45:16.701Z,35.03
2019-01-21T23:47:51.063Z,36.07
2019-01-21T23:50:24.174Z,36.50
2019-01-21T23:52:57.887Z,36.70
2019-01-21T23:55:31.273Z,33.40
2019-01-21T23:58:04.256Z,38.67
